SBSL/SLZ METAR and TAF weather

Enter ICAO airport designator
Station Type Date Time Source
SBSL METAR 2021/07/26 14:00 UTC NOAA

SBSL 261400Z 09008KT 9999 BKN025 31/22 Q1014


Station Type Date Time Source
SBSL Decoded METAR 2021/07/26 14:00 UTC NOAA

Sao Luiz Aeroporto , Brazil (SBSL) 02-36S 044-14W 53M
Jul 26, 2021 - 10:00 AM EDT / 2021.07.26 1400 UTC
Wind: from the E (090 degrees) at 9 MPH (8 KT):0
Visibility: greater than 7 mile(s):0
Sky conditions: mostly cloudy
Temperature: 87 F (31 C)
Heat index: 92.3 F (33.5 C):1
Dew Point: 71 F (22 C)
Relative Humidity: 58%
Pressure (altimeter): 29.94 in. Hg (1014 hPa)
ob: SBSL 261400Z 09008KT 9999 BKN025 31/22 Q1014
cycle: 14

Station Type Date Time Source
SBSL TAF 2021/07/26 12:06 UTC NOAA

TAF SBSL 260800Z 2612/2712 07007KT 9999 FEW020 TX31/2616Z TN25/2709Z
BECMG 2614/2616 SCT023 FEW030TCU PROB30 2618/2621 05015KT 7000 TS BKN017 FEW025CB
BECMG 2621/2623 05010KT FEW023
BECMG 2702/2704 07007KT CAVOK
BECMG 2709/2710 8000 BKN017
RMK PGB

Example: see airport list